Terminal Aerodrome Forecast
Issued by NWS Sterling, VA

Current Version | Previous Version | Graphics & Text | Print | Product List | Glossary On
Versions: 1 2 3 4 5 6 7 8 9 10 11 12 13 14 15 16 17 18 19 20 21
000
FTUS41 KLWX 150500
TAFIAD
TAF
KIAD 150520Z 1506/1612 00000KT P6SM FEW050
     FM150900 00000KT P6SM FEW040 FEW250
     FM151100 00000KT 5SM BR FEW040 SCT250
     FM151300 00000KT P6SM FEW040 SCT250
     FM160300 17004KT P6SM BKN040 OVC060
     FM161100 31004KT P6SM SCT040=

USA.gov is the U.S. government's official web portal to all federal, state and local government web resources and services.